Time,TemperatureF,DewpointF,PressureIn,WindDirection,WindDirectionDegrees,WindSpeedMPH,WindSpeedGustMPH,Humidity,HourlyPrecipIn,Conditions,Clouds,dailyrainin,SoftwareType,DateUTC
2013-09-28 00:01:00,69.3,66.8,29.84,West,270,0.0,-999.0,92,-99.99,,,0.00,Acu-Link.com,2013-09-28 04:01:00,
2013-09-28 00:17:00,69.3,66.8,29.84,WNW,292,0.0,-999.0,92,-99.99,,,0.00,Acu-Link.com,2013-09-28 04:17:00,
2013-09-28 00:32:00,69.3,67.1,29.83,ESE,112,0.0,-999.0,93,-99.99,,,0.00,Acu-Link.com,2013-09-28 04:32:00,
2013-09-28 00:47:00,69.3,67.1,29.83,NE,45,0.0,-999.0,93,-99.99,,,0.00,Acu-Link.com,2013-09-28 04:47:00,
2013-09-28 01:03:00,69.3,67.5,29.83,NE,45,0.0,-999.0,94,-99.99,,,0.00,Acu-Link.com,2013-09-28 05:03:00,
2013-09-28 01:18:00,69.4,67.6,29.83,NE,45,0.0,-999.0,94,-99.99,,,0.00,Acu-Link.com,2013-09-28 05:18:00,
2013-09-28 01:33:00,70.2,68.7,29.82,ESE,112,0.0,-999.0,95,-99.99,,,0.00,Acu-Link.com,2013-09-28 05:33:00,
2013-09-28 01:48:00,70.5,69.0,29.82,NE,45,0.0,-999.0,95,-99.99,,,0.00,Acu-Link.com,2013-09-28 05:48:00,
2013-09-28 02:04:00,70.9,69.4,29.82,ESE,112,1.6,-999.0,95,-99.99,,,0.00,Acu-Link.com,2013-09-28 06:04:00,
2013-09-28 02:19:00,71.2,69.7,29.82,East,90,1.1,-999.0,95,-99.99,,,0.00,Acu-Link.com,2013-09-28 06:19:00,
2013-09-28 02:34:00,71.8,70.0,29.81,ESE,112,1.1,-999.0,94,-99.99,,,0.00,Acu-Link.com,2013-09-28 06:34:00,
2013-09-28 02:50:00,71.8,70.0,29.82,ESE,112,0.0,-999.0,94,-99.99,,,0.00,Acu-Link.com,2013-09-28 06:50:00,
2013-09-28 03:05:00,71.8,70.0,29.82,ESE,112,1.1,-999.0,94,-99.99,,,0.00,Acu-Link.com,2013-09-28 07:05:00,
2013-09-28 03:20:00,71.8,70.0,29.81,SSE,157,0.0,-999.0,94,-99.99,,,0.00,Acu-Link.com,2013-09-28 07:20:00,
2013-09-28 03:36:00,71.6,69.8,29.81,ENE,67,1.1,-999.0,94,-99.99,,,0.00,Acu-Link.com,2013-09-28 07:36:00,
2013-09-28 03:51:00,71.4,69.6,29.81,SSE,157,2.7,-999.0,94,-99.99,,,0.00,Acu-Link.com,2013-09-28 07:51:00,
2013-09-28 04:06:00,71.4,69.6,29.81,East,90,1.1,-999.0,94,-99.99,,,0.00,Acu-Link.com,2013-09-28 08:06:00,
2013-09-28 04:22:00,71.4,69.9,29.81,SE,135,0.0,-999.0,95,-99.99,,,0.00,Acu-Link.com,2013-09-28 08:22:00,
2013-09-28 04:37:00,71.4,69.9,29.80,South,180,0.0,-999.0,95,-99.99,,,0.00,Acu-Link.com,2013-09-28 08:37:00,
2013-09-28 04:52:00,71.4,69.9,29.80,SSE,157,2.2,-999.0,95,-99.99,,,0.00,Acu-Link.com,2013-09-28 08:52:00,
2013-09-28 05:07:00,71.2,69.7,29.81,ESE,112,2.7,-999.0,95,-99.99,,,0.01,Acu-Link.com,2013-09-28 09:07:00,
2013-09-28 05:23:00,71.1,69.9,29.81,NNE,22,0.0,-999.0,96,-99.99,,,0.51,Acu-Link.com,2013-09-28 09:23:00,
2013-09-28 05:38:00,71.1,69.9,29.81,NNW,337,1.1,-999.0,96,-99.99,,,0.73,Acu-Link.com,2013-09-28 09:38:00,
2013-09-28 05:53:00,70.3,69.4,29.81,SE,135,2.7,-999.0,97,-99.99,,,1.02,Acu-Link.com,2013-09-28 09:53:00,
2013-09-28 06:09:00,70.3,69.4,29.82,SSE,157,0.0,-999.0,97,-99.99,,,1.11,Acu-Link.com,2013-09-28 10:09:00,
2013-09-28 06:24:00,70.3,69.4,29.82,NE,45,0.0,-999.0,97,-99.99,,,1.17,Acu-Link.com,2013-09-28 10:24:00,
2013-09-28 06:39:00,70.2,69.3,29.82,NNW,337,0.0,-999.0,97,-99.99,,,1.19,Acu-Link.com,2013-09-28 10:39:00,
2013-09-28 06:54:00,70.2,69.3,29.83,NNW,337,0.0,-999.0,97,-99.99,,,1.20,Acu-Link.com,2013-09-28 10:54:00,
2013-09-28 07:10:00,70.2,69.3,29.83,WNW,292,0.0,-999.0,97,-99.99,,,1.20,Acu-Link.com,2013-09-28 11:10:00,
2013-09-28 07:25:00,70.2,69.3,29.83,West,270,0.0,-999.0,97,-99.99,,,1.20,Acu-Link.com,2013-09-28 11:25:00,
2013-09-28 07:41:00,70.3,69.4,29.84,NW,315,0.0,-999.0,97,-99.99,,,1.20,Acu-Link.com,2013-09-28 11:41:00,
2013-09-28 07:56:00,70.2,69.3,29.85,South,180,1.1,-999.0,97,-99.99,,,1.22,Acu-Link.com,2013-09-28 11:56:00,
2013-09-28 08:11:00,70.0,69.1,29.86,West,270,0.0,-999.0,97,-99.99,,,1.22,Acu-Link.com,2013-09-28 12:11:00,
2013-09-28 08:27:00,70.3,69.4,29.87,ESE,112,0.0,-999.0,97,-99.99,,,1.23,Acu-Link.com,2013-09-28 12:27:00,
2013-09-28 08:42:00,71.4,70.8,29.87,West,270,0.0,-999.0,98,-99.99,,,1.23,Acu-Link.com,2013-09-28 12:42:00,
2013-09-28 08:57:00,71.1,70.2,29.87,SE,135,0.0,-999.0,97,-99.99,,,1.23,Acu-Link.com,2013-09-28 12:57:00,
2013-09-28 09:12:00,71.2,70.3,29.87,SSW,202,0.0,-999.0,97,-99.99,,,1.23,Acu-Link.com,2013-09-28 13:12:00,
2013-09-28 09:27:00,71.8,70.9,29.89,South,180,0.0,-999.0,97,-99.99,,,1.23,Acu-Link.com,2013-09-28 13:27:00,
2013-09-28 09:42:00,72.1,71.2,29.89,West,270,0.0,-999.0,97,-99.99,,,1.23,Acu-Link.com,2013-09-28 13:42:00,
2013-09-28 09:58:00,72.5,71.3,29.89,SSW,202,0.0,-999.0,96,-99.99,,,1.23,Acu-Link.com,2013-09-28 13:58:00,
2013-09-28 10:13:00,72.7,70.8,29.90,East,90,0.0,-999.0,94,-99.99,,,1.23,Acu-Link.com,2013-09-28 14:13:00,
2013-09-28 10:28:00,73.0,71.2,29.90,SSW,202,0.0,-999.0,94,-99.99,,,1.23,Acu-Link.com,2013-09-28 14:28:00,
2013-09-28 10:43:00,73.0,70.6,29.90,East,90,0.0,-999.0,92,-99.99,,,1.23,Acu-Link.com,2013-09-28 14:43:00,
2013-09-28 10:59:00,73.2,70.4,29.91,NNE,22,2.2,-999.0,91,-99.99,,,1.23,Acu-Link.com,2013-09-28 14:59:00,
2013-09-28 11:14:00,73.0,70.3,29.91,SSE,157,0.0,-999.0,91,-99.99,,,1.23,Acu-Link.com,2013-09-28 15:14:00,
2013-09-28 11:29:00,72.7,69.6,29.91,SW,225,1.6,-999.0,90,-99.99,,,1.23,Acu-Link.com,2013-09-28 15:29:00,
2013-09-28 11:45:00,72.1,69.7,29.91,ESE,112,0.0,-999.0,92,-99.99,,,1.23,Acu-Link.com,2013-09-28 15:45:00,
2013-09-28 12:00:00,72.0,69.8,29.91,WSW,247,2.2,-999.0,93,-99.99,,,1.23,Acu-Link.com,2013-09-28 16:00:00,
2013-09-28 12:15:00,71.8,69.6,29.92,ENE,67,0.0,-999.0,93,-99.99,,,1.23,Acu-Link.com,2013-09-28 16:15:00,
2013-09-28 12:30:00,72.1,70.0,29.91,West,270,1.6,-999.0,93,-99.99,,,1.23,Acu-Link.com,2013-09-28 16:30:00,
2013-09-28 12:46:00,72.1,70.0,29.91,NNW,337,1.6,-999.0,93,-99.99,,,1.23,Acu-Link.com,2013-09-28 16:46:00,
2013-09-28 13:01:00,72.0,69.8,29.91,WNW,292,0.0,-999.0,93,-99.99,,,1.23,Acu-Link.com,2013-09-28 17:01:00,
2013-09-28 13:16:00,72.0,69.8,29.90,East,90,0.0,-999.0,93,-99.99,,,1.23,Acu-Link.com,2013-09-28 17:16:00,
2013-09-28 13:31:00,72.5,70.7,29.90,SSE,157,0.0,-999.0,94,-99.99,,,1.23,Acu-Link.com,2013-09-28 17:31:00,
2013-09-28 13:47:00,72.5,70.4,29.89,ENE,67,0.0,-999.0,93,-99.99,,,1.23,Acu-Link.com,2013-09-28 17:47:00,
2013-09-28 14:02:00,73.6,70.5,29.88,WNW,292,1.6,-999.0,90,-99.99,,,1.23,Acu-Link.com,2013-09-28 18:02:00,
2013-09-28 14:17:00,74.8,71.4,29.88,West,270,0.0,-999.0,89,-99.99,,,1.23,Acu-Link.com,2013-09-28 18:17:00,
2013-09-28 14:33:00,74.5,70.3,29.88,SSW,202,0.0,-999.0,87,-99.99,,,1.23,Acu-Link.com,2013-09-28 18:33:00,
2013-09-28 14:48:00,74.3,70.2,29.87,SSW,202,1.6,-999.0,87,-99.99,,,1.23,Acu-Link.com,2013-09-28 18:48:00,
2013-09-28 15:03:00,74.3,69.8,29.87,West,270,2.7,-999.0,86,-99.99,,,1.23,Acu-Link.com,2013-09-28 19:03:00,
2013-09-28 15:18:00,74.7,70.2,29.87,SSE,157,0.0,-999.0,86,-99.99,,,1.23,Acu-Link.com,2013-09-28 19:18:00,
2013-09-28 15:33:00,75.7,70.6,29.86,SSE,157,0.0,-999.0,84,-99.99,,,1.23,Acu-Link.com,2013-09-28 19:33:00,
2013-09-28 15:48:00,75.7,70.2,29.86,ESE,112,0.0,-999.0,83,-99.99,,,1.23,Acu-Link.com,2013-09-28 19:48:00,
2013-09-28 16:03:00,75.7,69.5,29.86,ESE,112,2.2,-999.0,81,-99.99,,,1.23,Acu-Link.com,2013-09-28 20:03:00,
2013-09-28 16:19:00,75.6,69.3,29.86,SSE,157,2.2,-999.0,81,-99.99,,,1.23,Acu-Link.com,2013-09-28 20:19:00,
2013-09-28 16:34:00,75.2,69.3,29.86,South,180,1.6,-999.0,82,-99.99,,,1.23,Acu-Link.com,2013-09-28 20:34:00,
2013-09-28 16:49:00,75.0,69.5,29.86,North,0,1.6,-999.0,83,-99.99,,,1.23,Acu-Link.com,2013-09-28 20:49:00,
2013-09-28 17:05:00,74.8,69.0,29.86,SSE,157,0.0,-999.0,82,-99.99,,,1.23,Acu-Link.com,2013-09-28 21:05:00,
2013-09-28 17:20:00,74.7,67.7,29.87,SE,135,1.1,-999.0,79,-99.99,,,1.23,Acu-Link.com,2013-09-28 21:20:00,
2013-09-28 17:35:00,74.3,66.6,29.86,ESE,112,1.1,-999.0,77,-99.99,,,1.23,Acu-Link.com,2013-09-28 21:35:00,
2013-09-28 17:51:00,74.3,67.7,29.86,SSE,157,0.0,-999.0,80,-99.99,,,1.23,Acu-Link.com,2013-09-28 21:51:00,
2013-09-28 18:06:00,73.9,67.4,29.86,NW,315,0.0,-999.0,80,-99.99,,,1.23,Acu-Link.com,2013-09-28 22:06:00,
2013-09-28 18:21:00,73.6,67.7,29.87,ENE,67,1.6,-999.0,82,-99.99,,,1.23,Acu-Link.com,2013-09-28 22:21:00,
2013-09-28 18:36:00,73.2,67.7,29.87,South,180,0.0,-999.0,83,-99.99,,,1.23,Acu-Link.com,2013-09-28 22:36:00,
2013-09-28 18:52:00,72.9,68.1,29.87,West,270,0.0,-999.0,85,-99.99,,,1.23,Acu-Link.com,2013-09-28 22:52:00,
2013-09-28 19:07:00,72.7,68.2,29.86,SSE,157,0.0,-999.0,86,-99.99,,,1.23,Acu-Link.com,2013-09-28 23:07:00,
2013-09-28 19:22:00,72.5,68.1,29.87,West,270,0.0,-999.0,86,-99.99,,,1.23,Acu-Link.com,2013-09-28 23:22:00,
2013-09-28 19:38:00,72.1,68.0,29.87,SE,135,0.0,-999.0,87,-99.99,,,1.23,Acu-Link.com,2013-09-28 23:38:00,
2013-09-28 19:53:00,72.0,67.9,29.87,SSW,202,0.0,-999.0,87,-99.99,,,1.23,Acu-Link.com,2013-09-28 23:53:00,
2013-09-28 20:08:00,71.8,67.7,29.87,West,270,0.0,-999.0,87,-99.99,,,1.23,Acu-Link.com,2013-09-29 00:08:00,
2013-09-28 20:24:00,71.6,67.5,29.87,WNW,292,0.0,-999.0,87,-99.99,,,1.23,Acu-Link.com,2013-09-29 00:24:00,
2013-09-28 20:39:00,71.2,67.2,29.87,West,270,0.0,-999.0,87,-99.99,,,1.23,Acu-Link.com,2013-09-29 00:39:00,
2013-09-28 20:54:00,71.1,67.3,29.87,NNW,337,0.0,-999.0,88,-99.99,,,1.23,Acu-Link.com,2013-09-29 00:54:00,
2013-09-28 21:09:00,70.9,67.1,29.87,West,270,0.0,-999.0,88,-99.99,,,1.23,Acu-Link.com,2013-09-29 01:09:00,
2013-09-28 21:24:00,70.7,67.3,29.88,ESE,112,0.0,-999.0,89,-99.99,,,1.23,Acu-Link.com,2013-09-29 01:24:00,
2013-09-28 21:40:00,70.3,66.9,29.88,East,90,0.0,-999.0,89,-99.99,,,1.23,Acu-Link.com,2013-09-29 01:40:00,
2013-09-28 21:55:00,70.0,66.9,29.88,SSE,157,0.0,-999.0,90,-99.99,,,1.23,Acu-Link.com,2013-09-29 01:55:00,
2013-09-28 22:10:00,70.0,66.9,29.88,North,0,0.0,-999.0,90,-99.99,,,1.23,Acu-Link.com,2013-09-29 02:10:00,
2013-09-28 22:26:00,70.0,67.2,29.87,WNW,292,0.0,-999.0,91,-99.99,,,1.23,Acu-Link.com,2013-09-29 02:26:00,
2013-09-28 22:41:00,70.0,67.2,29.87,NE,45,0.0,-999.0,91,-99.99,,,1.23,Acu-Link.com,2013-09-29 02:41:00,
2013-09-28 22:56:00,69.8,67.0,29.87,ENE,67,0.0,-999.0,91,-99.99,,,1.23,Acu-Link.com,2013-09-29 02:56:00,
2013-09-28 23:11:00,69.8,67.0,29.87,SSW,202,0.0,-999.0,91,-99.99,,,1.23,Acu-Link.com,2013-09-29 03:11:00,
2013-09-28 23:27:00,69.6,66.9,29.86,SSE,157,0.0,-999.0,91,-99.99,,,1.23,Acu-Link.com,2013-09-29 03:27:00,
2013-09-28 23:42:00,69.6,66.9,29.85,WNW,292,0.0,-999.0,91,-99.99,,,1.23,Acu-Link.com,2013-09-29 03:42:00,
2013-09-28 23:57:00,69.4,67.0,29.86,NW,315,0.0,-999.0,92,-99.99,,,1.23,Acu-Link.com,2013-09-29 03:57:00,